Time;durP1;ratioP1;P1;durP2;ratioP2;P2;SDS_P1;SDS_P2;PMS_P1;PMS_P2;Temp;Humidity;BMP_temperature;BMP_pressure;BME280_temperature;BME280_humidity;BME280_pressure;Samples;Min_cycle;Max_cycle;Signal;HPM_P1;HPM_P2
2023/08/22 00:04:05;;;;;;;;;;;;;;;17.51;89.25;102202.5;;;;-79
2023/08/22 00:09:08;;;;;;;;;;;;;;;17.47;88.4707;102194.9;;;;-80
2023/08/22 00:14:05;;;;;;;;;;;;;;;17.41;88.37988;102179.9;;;;-81
2023/08/22 00:19:06;;;;;;;;;;;;;;;17.36;88.98535;102170.7;;;;-81
2023/08/22 00:23:56;;;;;;;8.5;3.8;;;;;;;;;;;;;-80
2023/08/22 00:24:06;;;;;;;;;;;;;;;17.31;88.14453;102158;;;;-78
2023/08/22 00:29:06;;;;;;;;;;;;;;;17.38;89.96387;102164.1;;;;-79
2023/08/22 00:34:05;;;;;;;;;;;;;;;17.29;89.55371;102154.5;;;;-79
2023/08/22 00:39:06;;;;;;;;;;;;;;;17.21;90.03027;102150.8;;;;-80
2023/08/22 00:44:05;;;;;;;;;;;;;;;17.14;92.05273;102143.6;;;;-80
2023/08/22 00:49:08;;;;;;;;;;;;;;;17.1;92.76172;102136.6;;;;-79
2023/08/22 00:53:58;;;;;;;12.9;5.3;;;;;;;;;;;;;-81
2023/08/22 00:54:09;;;;;;;;;;;;;;;16.98;92.83984;102117.6;;;;-79
2023/08/22 00:59:06;;;;;;;;;;;;;;;17.1;92.63867;102128.6;;;;-81
2023/08/22 01:04:05;;;;;;;;;;;;;;;17.14;92.53613;102128.9;;;;-82
2023/08/22 01:09:10;;;;;;;;;;;;;;;17.18;92.49902;102124.8;;;;-80
2023/08/22 01:14:08;;;;;;;;;;;;;;;17.2;91.9541;102132;;;;-79
2023/08/22 01:19:06;;;;;;;;;;;;;;;17.22;91.6123;102123.3;;;;-79
2023/08/22 01:24:02;;;;;;;12.8;5.1;;;;;;;;;;;;;-79
2023/08/22 01:24:12;;;;;;;;;;;;;;;16.93;90.68945;102078;;;;-77
2023/08/22 01:29:13;;;;;;;;;;;;;;;17.2;90.72266;102141.5;;;;-79
2023/08/22 01:34:10;;;;;;;;;;;;;;;17.1;93.18848;102136.3;;;;-81
2023/08/22 01:39:07;;;;;;;;;;;;;;;16.98;92.79297;102139.1;;;;-80
2023/08/22 01:44:06;;;;;;;;;;;;;;;16.83;94.33887;102128.1;;;;-80
2023/08/22 01:49:05;;;;;;;;;;;;;;;16.74;92.08398;102131.3;;;;-79
2023/08/22 01:54:04;;;;;;;7.6;4;;;;;;;;;;;;;-82
2023/08/22 01:54:14;;;;;;;;;;;;;;;16.58;90.40625;102117.3;;;;-77
2023/08/22 01:59:05;;;;;;;;;;;;;;;16.55;91.85449;102124.4;;;;-78
2023/08/22 02:04:06;;;;;;;;;;;;;;;16.51;93.88086;102120;;;;-80
2023/08/22 02:09:06;;;;;;;;;;;;;;;16.49;93.22656;102113.5;;;;-79
2023/08/22 02:14:05;;;;;;;;;;;;;;;16.46;94.18164;102102.4;;;;-78
2023/08/22 02:19:05;;;;;;;;;;;;;;;16.42;92.39746;102107.5;;;;-78
2023/08/22 02:24:05;;;;;;;;;;;;;;;16.47;99.19434;102100.9;;;;-79
2023/08/22 02:24:15;;;;;;;13.1;6;;;;;;;;;;;;;-79
2023/08/22 02:29:05;;;;;;;;;;;;;;;16.5;100;102094.1;;;;-78
2023/08/22 02:34:05;;;;;;;;;;;;;;;16.53;100;102093.4;;;;-79
2023/08/22 02:39:06;;;;;;;;;;;;;;;16.51;99.81641;102085.7;;;;-79
2023/08/22 02:44:06;;;;;;;;;;;;;;;16.46;100;102089.7;;;;-81
2023/08/22 02:49:05;;;;;;;;;;;;;;;16.43;100;102088;;;;-81
2023/08/22 02:54:06;;;;;;;;;;;;;;;16.39;100;102081.2;;;;-79
2023/08/22 02:54:16;;;;;;;13.6;6.6;;;;;;;;;;;;;-79
2023/08/22 02:59:06;;;;;;;;;;;;;;;16.35;100;102096.3;;;;-78
2023/08/22 03:04:05;;;;;;;;;;;;;;;16.28;100;102095;;;;-80
2023/08/22 03:09:06;;;;;;;;;;;;;;;16.18;100;102090.8;;;;-81
2023/08/22 03:14:05;;;;;;;;;;;;;;;16.06;97.93262;102093.1;;;;-81
2023/08/22 03:19:05;;;;;;;;;;;;;;;15.92;96.9541;102098.6;;;;-80
2023/08/22 03:24:07;;;;;;;;;;;;;;;15.79;92.34375;102093.8;;;;-80
2023/08/22 03:24:16;;;;;;;10.3;4.4;;;;;;;;;;;;;-80
2023/08/22 03:29:07;;;;;;;;;;;;;;;15.8;96.66309;102090.7;;;;-80
2023/08/22 03:34:05;;;;;;;;;;;;;;;15.82;100;102086.8;;;;-81
2023/08/22 03:39:05;;;;;;;;;;;;;;;15.85;100;102084.9;;;;-79
2023/08/22 03:44:07;;;;;;;;;;;;;;;15.78;98.07324;102087.7;;;;-79
2023/08/22 03:49:05;;;;;;;;;;;;;;;15.66;95.02832;102075.4;;;;-77
2023/08/22 03:54:06;;;;;;;;;;;;;;;15.57;91.55078;102073.6;;;;-80
2023/08/22 03:54:16;;;;;;;8.4;4.3;;;;;;;;;;;;;-80
2023/08/22 03:59:05;;;;;;;;;;;;;;;15.52;94.67188;102063.2;;;;-79
2023/08/22 04:04:06;;;;;;;;;;;;;;;15.47;93.80469;102058.9;;;;-81
2023/08/22 04:09:05;;;;;;;;;;;;;;;15.53;100;102051.4;;;;-80
2023/08/22 04:14:07;;;;;;;;;;;;;;;15.59;100;102053.3;;;;-80
2023/08/22 04:19:05;;;;;;;;;;;;;;;15.68;100;102055.5;;;;-80
2023/08/22 04:24:05;;;;;;;;;;;;;;;15.78;100;102049.6;;;;-80
2023/08/22 04:24:17;;;;;;;16.8;8.2;;;;;;;;;;;;;-80
2023/08/22 04:29:05;;;;;;;;;;;;;;;15.88;100;102048.1;;;;-80
2023/08/22 04:34:05;;;;;;;;;;;;;;;15.95;100;102044.1;;;;-79
2023/08/22 04:39:06;;;;;;;;;;;;;;;15.94;100;102057.2;;;;-79
2023/08/22 04:44:10;;;;;;;;;;;;;;;15.93;100;102057.6;;;;-80
2023/08/22 04:49:05;;;;;;;;;;;;;;;15.9;100;102051.6;;;;-80
2023/08/22 04:54:05;;;;;;;;;;;;;;;15.88;100;102066.8;;;;-78
2023/08/22 04:54:19;;;;;;;12.9;6.3;;;;;;;;;;;;;-79
2023/08/22 04:59:05;;;;;;;;;;;;;;;15.83;100;102065.2;;;;-79
2023/08/22 05:04:06;;;;;;;;;;;;;;;15.85;100;102056.6;;;;-80
2023/08/22 05:09:07;;;;;;;;;;;;;;;15.83;100;102062.2;;;;-78
2023/08/22 05:14:06;;;;;;;;;;;;;;;15.75;100;102053.4;;;;-79
2023/08/22 05:19:08;;;;;;;;;;;;;;;15.88;100;102064;;;;-79
2023/08/22 05:24:05;;;;;;;;;;;;;;;16.09;100;102059.3;;;;-79
2023/08/22 05:24:21;;;;;;;15.1;7.1;;;;;;;;;;;;;-79
2023/08/22 05:29:06;;;;;;;;;;;;;;;16.35;100;102060.4;;;;-80
2023/08/22 05:34:05;;;;;;;;;;;;;;;16.56;100;102057.1;;;;-79
2023/08/22 05:39:06;;;;;;;;;;;;;;;16.75;100;102063.7;;;;-80
2023/08/22 05:44:05;;;;;;;;;;;;;;;16.94;100;102060.1;;;;-80
2023/08/22 05:49:07;;;;;;;;;;;;;;;17.1;99.56934;102053.8;;;;-81
2023/08/22 05:54:06;;;;;;;;;;;;;;;17.29;98.88574;102051.3;;;;-81
2023/08/22 05:54:27;;;;;;;14.4;6.8;;;;;;;;;;;;;-80
2023/08/22 05:59:06;;;;;;;;;;;;;;;17.45;98.4082;102064.3;;;;-80
2023/08/22 06:04:05;;;;;;;;;;;;;;;17.74;97.25293;102067.7;;;;-79
2023/08/22 06:09:05;;;;;;;;;;;;;;;18.3;94.20117;102063.6;;;;-79
2023/08/22 06:14:05;;;;;;;;;;;;;;;18.16;97.11914;102064.7;;;;-82
2023/08/22 06:19:05;;;;;;;;;;;;;;;18.42;97.65918;102071.5;;;;-80
2023/08/22 06:24:05;;;;;;;;;;;;;;;19.21;93.51465;102081.1;;;;-80
2023/08/22 06:24:27;;;;;;;18.9;8.5;;;;;;;;;;;;;-80
2023/08/22 06:29:06;;;;;;;;;;;;;;;20.03;90.20605;102082;;;;-80
2023/08/22 06:34:05;;;;;;;;;;;;;;;20.55;87.19434;102078.5;;;;-80
2023/08/22 06:39:07;;;;;;;;;;;;;;;20.66;85.57813;102067.8;;;;-79
2023/08/22 06:44:08;;;;;;;;;;;;;;;20.91;85.22754;102074.4;;;;-81
2023/08/22 06:49:06;;;;;;;;;;;;;;;21.26;84.02734;102090.9;;;;-80
2023/08/22 06:54:05;;;;;;;;;;;;;;;21.14;86.25879;102096.8;;;;-80
2023/08/22 06:54:32;;;;;;;16.8;7.1;;;;;;;;;;;;;-80
2023/08/22 06:59:05;;;;;;;;;;;;;;;21.31;84.97754;102094.8;;;;-81
2023/08/22 07:04:05;;;;;;;;;;;;;;;21.36;83.38867;102099.9;;;;-79
2023/08/22 07:09:05;;;;;;;;;;;;;;;21.31;84.75098;102099.3;;;;-80
2023/08/22 07:14:05;;;;;;;;;;;;;;;21.37;83.99121;102106.5;;;;-81
2023/08/22 07:19:08;;;;;;;;;;;;;;;21.48;84.80566;102103.6;;;;-81
2023/08/22 07:24:07;;;;;;;;;;;;;;;21.77;82.11523;102103.3;;;;-80
2023/08/22 07:24:36;;;;;;;16.8;6.7;;;;;;;;;;;;;-80
2023/08/22 07:29:06;;;;;;;;;;;;;;;21.59;81.17578;102100.4;;;;-80
2023/08/22 07:34:05;;;;;;;;;;;;;;;21.68;81.13379;102097.8;;;;-79
2023/08/22 07:39:05;;;;;;;;;;;;;;;21.2;82.86035;102110.9;;;;-81
2023/08/22 07:44:13;;;;;;;;;;;;;;;21.18;82.49414;102109.8;;;;-80
2023/08/22 07:49:05;;;;;;;;;;;;;;;21.16;82.00488;102116;;;;-81
2023/08/22 07:54:06;;;;;;;;;;;;;;;21.25;81.0459;102117;;;;-80
2023/08/22 07:54:38;;;;;;;11.4;4;;;;;;;;;;;;;-80
2023/08/22 07:59:05;;;;;;;;;;;;;;;21.33;81.67285;102120.8;;;;-79
2023/08/22 08:04:05;;;;;;;;;;;;;;;21.59;79.7334;102132.5;;;;-80
2023/08/22 08:09:06;;;;;;;;;;;;;;;21.86;79.05566;102126.8;;;;-80
2023/08/22 08:14:06;;;;;;;;;;;;;;;21.98;79.17969;102121.6;;;;-82
2023/08/22 08:19:06;;;;;;;;;;;;;;;21.99;76.35156;102120.2;;;;-80
2023/08/22 08:24:06;;;;;;;;;;;;;;;22.14;75.39844;102128;;;;-80
2023/08/22 08:24:42;;;;;;;8.3;2.9;;;;;;;;;;;;;-80
2023/08/22 08:29:05;;;;;;;;;;;;;;;21.74;77.20605;102127.4;;;;-79
2023/08/22 08:34:05;;;;;;;;;;;;;;;21.5;77.98145;102129;;;;-80
2023/08/22 08:39:06;;;;;;;;;;;;;;;21.43;79.26367;102118.6;;;;-78
2023/08/22 08:44:06;;;;;;;;;;;;;;;21.67;77.55664;102115.4;;;;-79
2023/08/22 08:49:07;;;;;;;;;;;;;;;21.59;77.99707;102112.7;;;;-81
2023/08/22 08:54:07;;;;;;;;;;;;;;;21.79;76.24902;102118.1;;;;-80
2023/08/22 08:54:46;;;;;;;9.4;3;;;;;;;;;;;;;-80
2023/08/22 08:59:07;;;;;;;;;;;;;;;21.98;73.99414;102123.2;;;;-80
2023/08/22 09:04:05;;;;;;;;;;;;;;;22.37;73.41113;102121.7;;;;-77
2023/08/22 09:09:12;;;;;;;;;;;;;;;22.65;71.88379;102133.7;;;;-79
2023/08/22 09:14:08;;;;;;;;;;;;;;;22.4;71.41016;102127;;;;-80
2023/08/22 09:19:07;;;;;;;;;;;;;;;22.88;69.38672;102116.3;;;;-80
2023/08/22 09:24:16;;;;;;;;;;;;;;;23.23;69.16699;102137.5;;;;-79
2023/08/22 09:24:57;;;;;;;10.2;2.9;;;;;;;;;;;;;-79
2023/08/22 09:29:07;;;;;;;;;;;;;;;23.45;67.14258;102130.3;;;;-80
2023/08/22 09:34:09;;;;;;;;;;;;;;;22.95;68.7793;102124.9;;;;-79
2023/08/22 09:39:05;;;;;;;;;;;;;;;22.82;68.87305;102145.7;;;;-80
2023/08/22 09:44:06;;;;;;;;;;;;;;;22.91;69.19629;102144.2;;;;-79
2023/08/22 09:49:06;;;;;;;;;;;;;;;22.85;68.45508;102137.7;;;;-80
2023/08/22 09:54:05;;;;;;;;;;;;;;;23.06;67.66504;102134.9;;;;-79
2023/08/22 09:54:53;;;;;;;9;2.8;;;;;;;;;;;;;-80
2023/08/22 09:59:06;;;;;;;;;;;;;;;23.17;66.7793;102146.9;;;;-81
2023/08/22 10:04:07;;;;;;;;;;;;;;;23.21;65.55078;102149.2;;;;-80
2023/08/22 10:09:10;;;;;;;;;;;;;;;23.29;66.64746;102145;;;;-80
2023/08/22 10:14:06;;;;;;;;;;;;;;;22.92;65.16406;102149.4;;;;-80
2023/08/22 10:19:08;;;;;;;;;;;;;;;22.83;66.4541;102150.4;;;;-80
2023/08/22 10:24:05;;;;;;;;;;;;;;;22.87;66.73438;102111.5;;;;-81
2023/08/22 10:25:04;;;;;;;8.7;2.3;;;;;;;;;;;;;-79
2023/08/22 10:29:21;;;;;;;;;;;;;;;23.45;65.06934;102145.6;;;;-80
2023/08/22 10:34:09;;;;;;;;;;;;;;;23.96;61.54395;102146.5;;;;-80
2023/08/22 10:39:06;;;;;;;;;;;;;;;24.31;60.67383;102147.9;;;;-80
2023/08/22 10:44:06;;;;;;;;;;;;;;;24.42;58.67773;102149.8;;;;-80
2023/08/22 10:49:09;;;;;;;;;;;;;;;24.66;59.19141;102135.9;;;;-81
2023/08/22 10:54:22;;;;;;;;;;;;;;;24.9;58.55664;102133.3;;;;-80
2023/08/22 10:55:08;;;;;;;8.3;2.1;;;;;;;;;;;;;-82
2023/08/22 10:59:08;;;;;;;;;;;;;;;25.15;56.23926;102134;;;;-80
2023/08/22 11:04:08;;;;;;;;;;;;;;;25.07;57.72559;102131.8;;;;-81
2023/08/22 11:09:05;;;;;;;;;;;;;;;25.32;55.39648;102133.8;;;;-79
2023/08/22 11:14:05;;;;;;;;;;;;;;;25.42;55.35059;102132.5;;;;-80
2023/08/22 11:19:05;;;;;;;;;;;;;;;25.59;55.25684;102137.2;;;;-81
2023/08/22 11:24:07;;;;;;;;;;;;;;;25.59;53.70898;102150.8;;;;-80
2023/08/22 11:25:06;;;;;;;5.3;1.8;;;;;;;;;;;;;-80
2023/08/22 11:29:07;;;;;;;;;;;;;;;25.61;55.11914;102146.6;;;;-80
2023/08/22 11:34:08;;;;;;;;;;;;;;;25.4;55.36035;102156;;;;-80
2023/08/22 11:39:08;;;;;;;;;;;;;;;25.75;54.7793;102156;;;;-80
2023/08/22 11:44:05;;;;;;;;;;;;;;;25.58;55.02344;102139.1;;;;-81
2023/08/22 11:49:13;;;;;;;;;;;;;;;26.02;52.58301;102149.5;;;;-80
2023/08/22 11:54:10;;;;;;;;;;;;;;;25.99;52.84473;102143.3;;;;-81
2023/08/22 11:55:12;;;;;;;7.6;1.9;;;;;;;;;;;;;-81
2023/08/22 11:59:05;;;;;;;;;;;;;;;25.75;53.37109;102137.7;;;;-78
2023/08/22 12:04:11;;;;;;;;;;;;;;;26.1;52.25684;102145.9;;;;-80
2023/08/22 12:09:05;;;;;;;;;;;;;;;26.45;52.18066;102146.7;;;;-81
2023/08/22 12:14:05;;;;;;;;;;;;;;;26.39;52.27734;102140.3;;;;-80
2023/08/22 12:19:13;;;;;;;;;;;;;;;25.99;52.69336;102143.4;;;;-80
2023/08/22 12:24:05;;;;;;;;;;;;;;;25.71;55.31641;102154.6;;;;-80
2023/08/22 12:25:16;;;;;;;7.3;1.6;;;;;;;;;;;;;-80
2023/08/22 12:29:05;;;;;;;;;;;;;;;25.83;54.83496;102155.2;;;;-79
2023/08/22 12:34:05;;;;;;;;;;;;;;;25.83;54.0498;102149.3;;;;-80
2023/08/22 12:39:06;;;;;;;;;;;;;;;25.52;54.6123;102147.2;;;;-81
2023/08/22 12:44:05;;;;;;;;;;;;;;;25.55;52.38867;102143.3;;;;-80
2023/08/22 12:49:05;;;;;;;;;;;;;;;25.95;52.15918;102141.3;;;;-80
2023/08/22 12:54:05;;;;;;;;;;;;;;;26.12;50.32813;102146.7;;;;-79
2023/08/22 12:55:20;;;;;;;5.1;1.2;;;;;;;;;;;;;-80
2023/08/22 12:59:05;;;;;;;;;;;;;;;26.27;49.81348;102142.4;;;;-80
2023/08/22 13:04:13;;;;;;;;;;;;;;;25.96;50.95703;102142.8;;;;-80
2023/08/22 13:09:06;;;;;;;;;;;;;;;26.05;52.20508;102137.8;;;;-82
2023/08/22 13:14:10;;;;;;;;;;;;;;;25.87;51.19043;102129.5;;;;-80
2023/08/22 13:19:05;;;;;;;;;;;;;;;25.96;52.18164;102121;;;;-81
2023/08/22 13:24:05;;;;;;;;;;;;;;;25.81;51.53027;102121.6;;;;-81
2023/08/22 13:25:25;;;;;;;4.8;1.6;;;;;;;;;;;;;-80
2023/08/22 13:29:14;;;;;;;;;;;;;;;25.96;51.24707;102120.7;;;;-80
2023/08/22 13:34:05;;;;;;;;;;;;;;;25.91;50.50098;102122.9;;;;-79
2023/08/22 13:39:05;;;;;;;;;;;;;;;25.82;52.68555;102129.5;;;;-80
2023/08/22 13:44:06;;;;;;;;;;;;;;;26.27;51.90527;102133.9;;;;-80
2023/08/22 13:49:07;;;;;;;;;;;;;;;26.47;51.08496;102127.7;;;;-80
2023/08/22 13:54:05;;;;;;;;;;;;;;;26.16;51.38477;102130;;;;-79
2023/08/22 13:55:33;;;;;;;7.7;4.6;;;;;;;;;;;;;-81
2023/08/22 13:59:05;;;;;;;;;;;;;;;26.17;50.79688;102127;;;;-80
2023/08/22 14:04:05;;;;;;;;;;;;;;;25.87;52.38086;102131.6;;;;-80
2023/08/22 14:09:05;;;;;;;;;;;;;;;25.75;53.71777;102130.8;;;;-79
2023/08/22 14:14:05;;;;;;;;;;;;;;;25.97;53.44336;102121.4;;;;-79
2023/08/22 14:19:05;;;;;;;;;;;;;;;25.99;51.94336;102123.2;;;;-79
2023/08/22 14:24:08;;;;;;;;;;;;;;;26.01;51.18262;102124.2;;;;-79
2023/08/22 14:25:38;;;;;;;6.8;3.4;;;;;;;;;;;;;-81
2023/08/22 14:29:11;;;;;;;;;;;;;;;25.92;51.70508;102120.8;;;;-80
2023/08/22 14:34:08;;;;;;;;;;;;;;;25.79;51.32031;102114.3;;;;-80
2023/08/22 14:39:07;;;;;;;;;;;;;;;26.02;52.08496;102119.4;;;;-80
2023/08/22 14:44:05;;;;;;;;;;;;;;;25.91;52.98535;102122.5;;;;-80
2023/08/22 14:49:05;;;;;;;;;;;;;;;26.15;50.19336;102117.9;;;;-81
2023/08/22 14:54:06;;;;;;;;;;;;;;;26.23;51.69434;102116.6;;;;-82
2023/08/22 14:55:40;;;;;;;7;2.3;;;;;;;;;;;;;-80
2023/08/22 14:59:05;;;;;;;;;;;;;;;26.22;50.89551;102116.1;;;;-80
2023/08/22 15:04:08;;;;;;;;;;;;;;;26.62;51.34473;102117.4;;;;-80
2023/08/22 15:09:06;;;;;;;;;;;;;;;26.18;51.49121;102111.6;;;;-80
2023/08/22 15:14:05;;;;;;;;;;;;;;;26.29;50.84375;102117.9;;;;-81
2023/08/22 15:19:10;;;;;;;;;;;;;;;26.11;51.18164;102120.2;;;;-82
2023/08/22 15:24:06;;;;;;;;;;;;;;;26.14;51.87988;102119.8;;;;-80
2023/08/22 15:25:45;;;;;;;7.7;2.2;;;;;;;;;;;;;-81
2023/08/22 15:29:05;;;;;;;;;;;;;;;25.99;52.81055;102112.4;;;;-80
2023/08/22 15:34:05;;;;;;;;;;;;;;;25.79;53.80273;102107.9;;;;-81
2023/08/22 15:39:08;;;;;;;;;;;;;;;25.48;52.96973;102119.3;;;;-79
2023/08/22 15:44:05;;;;;;;;;;;;;;;25.85;54.74414;102112.8;;;;-81
2023/08/22 15:49:05;;;;;;;;;;;;;;;25.81;54.34766;102117.6;;;;-77
2023/08/22 15:54:08;;;;;;;;;;;;;;;25.42;55.51172;102123.4;;;;-80
2023/08/22 15:55:50;;;;;;;6.1;2.1;;;;;;;;;;;;;-82
2023/08/22 15:59:06;;;;;;;;;;;;;;;25.58;55.19727;102127;;;;-79
2023/08/22 16:04:05;;;;;;;;;;;;;;;25.2;56.28027;102125.4;;;;-80
2023/08/22 16:09:05;;;;;;;;;;;;;;;24.98;56.36719;102126.5;;;;-80
2023/08/22 16:14:05;;;;;;;;;;;;;;;24.99;56.56445;102131.3;;;;-81
2023/08/22 16:19:05;;;;;;;;;;;;;;;24.91;56.87598;102132;;;;-80
2023/08/22 16:24:06;;;;;;;;;;;;;;;24.33;58.23926;102135.7;;;;-80
2023/08/22 16:25:55;;;;;;;6.6;2.2;;;;;;;;;;;;;-80
2023/08/22 16:29:08;;;;;;;;;;;;;;;24.43;58.78223;102132.7;;;;-80
2023/08/22 16:34:06;;;;;;;;;;;;;;;24.49;57.50293;102134.3;;;;-80
2023/08/22 16:39:05;;;;;;;;;;;;;;;23.92;58.64551;102129.8;;;;-80
2023/08/22 16:44:07;;;;;;;;;;;;;;;24.02;59.14063;102118.3;;;;-81
2023/08/22 16:49:07;;;;;;;;;;;;;;;24.07;58.54102;102112.1;;;;-80
2023/08/22 16:54:05;;;;;;;;;;;;;;;24.17;58.58789;102111.6;;;;-79
2023/08/22 16:55:59;;;;;;;3.9;1.6;;;;;;;;;;;;;-80
2023/08/22 16:59:05;;;;;;;;;;;;;;;24.01;58.56641;102105.1;;;;-80
2023/08/22 17:04:05;;;;;;;;;;;;;;;23.71;59.00879;102109;;;;-80
2023/08/22 17:09:05;;;;;;;;;;;;;;;23.69;59.29297;102110;;;;-79
2023/08/22 17:14:08;;;;;;;;;;;;;;;23.64;59.67578;102109;;;;-80
2023/08/22 17:19:06;;;;;;;;;;;;;;;23.25;60.97852;102114;;;;-81
2023/08/22 17:24:05;;;;;;;;;;;;;;;23.26;61.66504;102106.7;;;;-80
2023/08/22 17:26:10;;;;;;;4.4;2.2;;;;;;;;;;;;;-80
2023/08/22 17:29:08;;;;;;;;;;;;;;;23.25;61.23047;102113.8;;;;-81
2023/08/22 17:34:06;;;;;;;;;;;;;;;23.03;62.43555;102109.7;;;;-80
2023/08/22 17:39:07;;;;;;;;;;;;;;;22.82;62.96582;102122.5;;;;-79
2023/08/22 17:44:05;;;;;;;;;;;;;;;22.53;63.64551;102118;;;;-79
2023/08/22 17:49:10;;;;;;;;;;;;;;;22.33;64.67969;102115.5;;;;-80
2023/08/22 17:54:07;;;;;;;;;;;;;;;22.46;65.25879;102115.2;;;;-80
2023/08/22 17:56:10;;;;;;;3.5;1.9;;;;;;;;;;;;;-80
2023/08/22 17:59:05;;;;;;;;;;;;;;;22.49;65.38672;102118.1;;;;-78
2023/08/22 18:04:06;;;;;;;;;;;;;;;22.15;66.83301;102116.6;;;;-80
2023/08/22 18:09:07;;;;;;;;;;;;;;;21.95;68.03418;102117.3;;;;-80
2023/08/22 18:14:05;;;;;;;;;;;;;;;21.73;69.00293;102117.2;;;;-80
2023/08/22 18:19:06;;;;;;;;;;;;;;;21.63;69.7959;102122.6;;;;-80
2023/08/22 18:24:05;;;;;;;;;;;;;;;21.52;69.89258;102119;;;;-81
2023/08/22 18:26:12;;;;;;;5.8;2.9;;;;;;;;;;;;;-80
2023/08/22 18:29:06;;;;;;;;;;;;;;;21.45;69.92871;102123.5;;;;-80
2023/08/22 18:34:05;;;;;;;;;;;;;;;21.36;70.03809;102123.2;;;;-81
2023/08/22 18:39:05;;;;;;;;;;;;;;;21.19;70.87598;102122.1;;;;-80
2023/08/22 18:44:05;;;;;;;;;;;;;;;21;71.85547;102121.7;;;;-81
2023/08/22 18:49:07;;;;;;;;;;;;;;;20.72;73.32129;102130.9;;;;-80
2023/08/22 18:54:05;;;;;;;;;;;;;;;20.53;74.15234;102127.8;;;;-79
2023/08/22 18:56:16;;;;;;;5.3;2.8;;;;;;;;;;;;;-79
2023/08/22 18:59:06;;;;;;;;;;;;;;;20.43;73.65918;102135.5;;;;-81
2023/08/22 19:04:06;;;;;;;;;;;;;;;20.19;76;102144.5;;;;-81
2023/08/22 19:09:05;;;;;;;;;;;;;;;20.05;76.5293;102152.5;;;;-78
2023/08/22 19:14:05;;;;;;;;;;;;;;;19.89;76.15234;102146.9;;;;-82
2023/08/22 19:19:08;;;;;;;;;;;;;;;19.79;77.37988;102156.8;;;;-81
2023/08/22 19:24:05;;;;;;;;;;;;;;;19.63;78.14258;102147.6;;;;-80
2023/08/22 19:26:19;;;;;;;11.9;6;;;;;;;;;;;;;-79
2023/08/22 19:29:05;;;;;;;;;;;;;;;19.54;79.03027;102155.6;;;;-81
2023/08/22 19:34:07;;;;;;;;;;;;;;;19.4;80.20313;102155.7;;;;-79
2023/08/22 19:39:05;;;;;;;;;;;;;;;19.16;82.42676;102159;;;;-80
2023/08/22 19:44:05;;;;;;;;;;;;;;;19;82.99609;102157;;;;-80
2023/08/22 19:49:05;;;;;;;;;;;;;;;18.94;82.39746;102153.6;;;;-79
2023/08/22 19:54:05;;;;;;;;;;;;;;;18.89;83.34766;102158.3;;;;-79
2023/08/22 19:56:22;;;;;;;9.2;5.7;;;;;;;;;;;;;-82
2023/08/22 19:59:05;;;;;;;;;;;;;;;18.81;83.03906;102152.7;;;;-81
2023/08/22 20:04:05;;;;;;;;;;;;;;;18.62;86.00879;102153.4;;;;-78
2023/08/22 20:09:11;;;;;;;;;;;;;;;18.47;87.6582;102148.8;;;;-79
2023/08/22 20:14:05;;;;;;;;;;;;;;;18.32;88.12012;102144.7;;;;-81
2023/08/22 20:19:05;;;;;;;;;;;;;;;18.3;88.68066;102151.2;;;;-79
2023/08/22 20:24:05;;;;;;;;;;;;;;;18.27;88.38086;102146.9;;;;-79
2023/08/22 20:26:26;;;;;;;11.3;6.2;;;;;;;;;;;;;-80
2023/08/22 20:29:05;;;;;;;;;;;;;;;18.21;88.2334;102142.9;;;;-79
2023/08/22 20:34:06;;;;;;;;;;;;;;;18.21;87.08789;102152.7;;;;-78
2023/08/22 20:39:06;;;;;;;;;;;;;;;18.14;86.53613;102155.9;;;;-80
2023/08/22 20:44:05;;;;;;;;;;;;;;;18.06;89.31641;102153.3;;;;-80
2023/08/22 20:49:05;;;;;;;;;;;;;;;18.01;86.00391;102156.8;;;;-80
2023/08/22 20:54:08;;;;;;;;;;;;;;;17.97;88.45605;102143.3;;;;-81
2023/08/22 20:56:29;;;;;;;9.5;7.1;;;;;;;;;;;;;-79
2023/08/22 20:59:05;;;;;;;;;;;;;;;17.74;92.72852;102147.9;;;;-79
2023/08/22 21:04:05;;;;;;;;;;;;;;;17.63;93.98242;102153.4;;;;-79
2023/08/22 21:09:05;;;;;;;;;;;;;;;17.63;93.36621;102154;;;;-81
2023/08/22 21:14:05;;;;;;;;;;;;;;;17.6;93.5957;102161.3;;;;-79
2023/08/22 21:19:05;;;;;;;;;;;;;;;17.61;93.51758;102163.8;;;;-80
2023/08/22 21:24:10;;;;;;;;;;;;;;;17.57;93.55273;102164.2;;;;-80
2023/08/22 21:26:34;;;;;;;9;5.3;;;;;;;;;;;;;-79
2023/08/22 21:29:16;;;;;;;;;;;;;;;17.53;92.72949;102167.2;;;;-79
2023/08/22 21:34:05;;;;;;;;;;;;;;;17.49;94.63672;102166.1;;;;-80
2023/08/22 21:39:05;;;;;;;;;;;;;;;17.42;95.98438;102164;;;;-80
2023/08/22 21:44:05;;;;;;;;;;;;;;;17.34;97.37695;102169.3;;;;-80
2023/08/22 21:49:05;;;;;;;;;;;;;;;17.35;96.50684;102176.3;;;;-80
2023/08/22 21:54:05;;;;;;;;;;;;;;;17.31;97.12598;102176.5;;;;-80
2023/08/22 21:56:35;;;;;;;12.9;8.1;;;;;;;;;;;;;-79
2023/08/22 21:59:05;;;;;;;;;;;;;;;17.25;96.74316;102170.9;;;;-81
2023/08/22 22:04:05;;;;;;;;;;;;;;;17.19;99.35449;102176.1;;;;-79
2023/08/22 22:09:05;;;;;;;;;;;;;;;17.16;98.35449;102173.3;;;;-80
2023/08/22 22:14:05;;;;;;;;;;;;;;;17.14;99.08789;102172;;;;-81
2023/08/22 22:19:05;;;;;;;;;;;;;;;17.05;100;102167.3;;;;-80
2023/08/22 22:24:05;;;;;;;;;;;;;;;17.03;100;102166.2;;;;-80
2023/08/22 22:26:37;;;;;;;12.4;7.5;;;;;;;;;;;;;-80
2023/08/22 22:29:05;;;;;;;;;;;;;;;17;100;102160.2;;;;-78
2023/08/22 22:34:05;;;;;;;;;;;;;;;16.97;100;102156.4;;;;-80
2023/08/22 22:39:05;;;;;;;;;;;;;;;16.93;100;102159.8;;;;-80
2023/08/22 22:44:07;;;;;;;;;;;;;;;16.89;100;102151.2;;;;-79
2023/08/22 22:49:05;;;;;;;;;;;;;;;16.86;100;102148.7;;;;-79
2023/08/22 22:54:05;;;;;;;;;;;;;;;16.84;100;102145.5;;;;-79
2023/08/22 22:56:40;;;;;;;13.5;7.4;;;;;;;;;;;;;-79
2023/08/22 22:59:06;;;;;;;;;;;;;;;16.79;100;102142.2;;;;-80
2023/08/22 23:04:05;;;;;;;;;;;;;;;16.78;100;102148.5;;;;-79
2023/08/22 23:09:05;;;;;;;;;;;;;;;16.73;100;102140.5;;;;-78
2023/08/22 23:14:05;;;;;;;;;;;;;;;16.64;100;102131.3;;;;-80
2023/08/22 23:19:05;;;;;;;;;;;;;;;16.64;100;102137.5;;;;-80
2023/08/22 23:24:06;;;;;;;;;;;;;;;16.59;100;102143.9;;;;-79
2023/08/22 23:26:42;;;;;;;13.4;7.1;;;;;;;;;;;;;-80
2023/08/22 23:29:07;;;;;;;;;;;;;;;16.57;100;102142.3;;;;-79
2023/08/22 23:34:07;;;;;;;;;;;;;;;16.56;100;102146.5;;;;-80
2023/08/22 23:39:06;;;;;;;;;;;;;;;16.55;100;102143.5;;;;-79
2023/08/22 23:44:13;;;;;;;;;;;;;;;16.52;100;102143.2;;;;-80
2023/08/22 23:49:05;;;;;;;;;;;;;;;16.5;100;102147.7;;;;-79
2023/08/22 23:54:07;;;;;;;;;;;;;;;16.46;100;102141.8;;;;-79
2023/08/22 23:56:45;;;;;;;12.9;7.9;;;;;;;;;;;;;-78
2023/08/22 23:59:05;;;;;;;;;;;;;;;16.42;100;102133.7;;;;-79
